createdAt,value
2019-03-12T00:03:15.818Z,99.90
2019-03-12T00:08:19.192Z,99.90
2019-03-12T00:13:22.575Z,99.90
2019-03-12T00:18:28.426Z,99.90
2019-03-12T00:23:31.071Z,99.90
2019-03-12T00:28:34.451Z,99.90
2019-03-12T00:33:37.840Z,99.90
2019-03-12T00:38:41.215Z,99.90
2019-03-12T00:43:44.595Z,99.90
2019-03-12T00:48:47.980Z,99.90
2019-03-12T00:53:51.388Z,99.90
2019-03-12T00:58:54.771Z,99.90
2019-03-12T01:03:58.155Z,99.90
2019-03-12T01:09:01.549Z,99.90
2019-03-12T01:14:05.000Z,99.90
2019-03-12T01:19:08.380Z,99.90
2019-03-12T01:24:11.767Z,99.90
2019-03-12T01:29:15.145Z,99.90
2019-03-12T01:34:18.528Z,99.90
2019-03-12T01:39:21.907Z,99.90
2019-03-12T01:44:25.295Z,99.90
2019-03-12T01:49:28.692Z,99.90
2019-03-12T01:54:32.063Z,99.90
2019-03-12T01:59:35.449Z,99.90
2019-03-12T02:04:38.844Z,99.90
2019-03-12T02:09:42.233Z,99.90
2019-03-12T02:14:45.615Z,99.90
2019-03-12T02:19:49.011Z,99.90
2019-03-12T02:24:53.203Z,99.90
2019-03-12T02:29:56.763Z,99.90
2019-03-12T02:35:00.138Z,99.90
2019-03-12T02:40:04.253Z,99.90
2019-03-12T02:45:15.438Z,99.90
2019-03-12T02:50:18.826Z,99.90
2019-03-12T02:55:22.191Z,99.90
2019-03-12T03:00:26.660Z,99.90
2019-03-12T03:05:30.792Z,99.90
2019-03-12T03:10:34.179Z,99.90
2019-03-12T03:15:39.232Z,99.90
2019-03-12T03:20:42.598Z,99.90
2019-03-12T03:25:45.997Z,99.90
2019-03-12T03:30:49.485Z,99.90
2019-03-12T03:35:52.941Z,99.90
2019-03-12T03:40:56.391Z,99.90
2019-03-12T03:45:59.765Z,99.90
2019-03-12T03:51:03.158Z,99.90
2019-03-12T03:56:06.554Z,99.90
2019-03-12T04:01:09.961Z,99.90
2019-03-12T04:06:13.349Z,99.90
2019-03-12T04:11:16.736Z,99.90
2019-03-12T04:16:20.117Z,99.90
2019-03-12T04:21:23.501Z,99.90
2019-03-12T04:26:26.890Z,99.90
2019-03-12T04:31:30.263Z,99.90
2019-03-12T04:36:33.651Z,99.90
2019-03-12T04:41:37.046Z,99.90
2019-03-12T04:46:40.428Z,99.90
2019-03-12T04:51:43.819Z,99.90
2019-03-12T04:56:47.209Z,99.90
2019-03-12T05:01:50.590Z,99.90
2019-03-12T05:06:53.980Z,99.90
2019-03-12T05:11:57.367Z,99.90
2019-03-12T05:17:03.989Z,99.90
2019-03-12T05:22:07.363Z,99.90
2019-03-12T05:27:10.743Z,99.90
2019-03-12T05:32:14.131Z,99.90
2019-03-12T05:37:17.520Z,99.90
2019-03-12T05:42:20.912Z,99.90
2019-03-12T05:47:24.306Z,99.90
2019-03-12T05:52:27.688Z,99.90
2019-03-12T05:57:31.146Z,99.90
2019-03-12T06:02:34.533Z,99.90
2019-03-12T06:07:37.926Z,99.90
2019-03-12T06:12:41.303Z,99.90
2019-03-12T06:17:44.693Z,99.90
2019-03-12T06:22:48.080Z,99.90
2019-03-12T06:27:51.470Z,99.90
2019-03-12T06:32:59.405Z,99.90
2019-03-12T06:38:06.869Z,99.90
2019-03-12T06:43:26.723Z,99.90
2019-03-12T06:48:37.404Z,99.90
2019-03-12T06:53:45.367Z,99.90
2019-03-12T06:59:06.395Z,99.90
2019-03-12T07:04:23.520Z,99.90
2019-03-12T07:09:28.531Z,99.90
2019-03-12T07:14:48.158Z,99.90
2019-03-12T07:19:53.196Z,99.90
2019-03-12T07:25:00.921Z,99.90
2019-03-12T07:30:13.106Z,99.90
2019-03-12T07:35:34.431Z,99.90
2019-03-12T07:40:42.356Z,99.90
2019-03-12T07:45:50.033Z,99.90
2019-03-12T07:50:58.023Z,99.90
2019-03-12T07:56:09.092Z,99.90
2019-03-12T08:01:25.022Z,99.90
2019-03-12T08:06:44.541Z,99.90
2019-03-12T08:11:49.571Z,99.90
2019-03-12T08:16:54.604Z,99.90
2019-03-12T08:21:59.627Z,99.90
2019-03-12T08:27:10.411Z,99.90
2019-03-12T08:32:18.498Z,99.90
2019-03-12T08:37:23.519Z,99.90
2019-03-12T08:42:28.547Z,99.90
2019-03-12T08:47:36.314Z,99.90
2019-03-12T08:52:50.034Z,99.90
2019-03-12T08:58:10.103Z,99.90
2019-03-12T09:03:33.124Z,99.90
2019-03-12T09:08:56.225Z,99.90
2019-03-12T09:14:01.240Z,99.90
2019-03-12T09:19:06.335Z,99.90
2019-03-12T09:24:20.315Z,99.90
2019-03-12T09:29:34.279Z,99.90
2019-03-12T09:34:55.564Z,99.90
2019-03-12T09:40:03.507Z,99.90
2019-03-12T09:45:16.328Z,99.90
2019-03-12T09:50:27.404Z,99.90
2019-03-12T09:55:50.310Z,99.90
2019-03-12T10:01:07.376Z,99.90
2019-03-12T10:06:12.422Z,99.90
2019-03-12T10:11:35.600Z,99.90
2019-03-12T10:16:58.403Z,98.80
2019-03-12T10:22:06.095Z,98.80
2019-03-12T10:27:11.134Z,97.50
2019-03-12T10:32:34.252Z,96.70
2019-03-12T10:37:41.968Z,97.20
2019-03-12T10:42:49.731Z,97.40
2019-03-12T10:48:00.843Z,96.80
2019-03-12T10:53:04.376Z,95.80
2019-03-12T10:58:07.766Z,96.30
2019-03-12T11:03:11.222Z,96.60
2019-03-12T11:08:14.688Z,94.60
2019-03-12T11:13:18.067Z,95.10
2019-03-12T11:18:21.447Z,95.70
2019-03-12T11:23:24.822Z,95.30
2019-03-12T11:28:28.207Z,95.40
2019-03-12T11:33:31.588Z,95.60
2019-03-12T11:38:34.975Z,93.60
2019-03-12T11:43:38.364Z,92.30
2019-03-12T11:48:41.754Z,92.10
2019-03-12T11:53:45.136Z,85.10
2019-03-12T11:58:48.516Z,79.20
2019-03-12T12:03:51.908Z,76.20
2019-03-12T12:08:55.294Z,74.50
2019-03-12T12:13:58.679Z,73.10
2019-03-12T12:19:02.064Z,73.30
2019-03-12T12:24:05.453Z,71.80
2019-03-12T12:29:08.843Z,71.80
2019-03-12T12:34:12.218Z,71.20
2019-03-12T12:39:15.603Z,73.20
2019-03-12T12:44:18.985Z,74.20
2019-03-12T12:49:22.369Z,73.60
2019-03-12T12:54:25.750Z,73.10
2019-03-12T12:59:29.211Z,74.90
2019-03-12T13:04:32.598Z,74.60
2019-03-12T13:09:35.988Z,73.20
2019-03-12T13:14:41.695Z,69.80
2019-03-12T13:19:44.602Z,68.70
2019-03-12T13:24:48.051Z,69.10
2019-03-12T13:29:51.439Z,68.90
2019-03-12T13:34:54.836Z,65.80
2019-03-12T13:39:58.393Z,66.70
2019-03-12T13:45:02.177Z,69.80
2019-03-12T13:50:09.008Z,61.30
2019-03-12T13:55:14.332Z,62.50
2019-03-12T14:00:20.244Z,62.80
2019-03-12T14:05:23.640Z,64.20
2019-03-12T14:10:27.802Z,62.70
2019-03-12T14:15:33.278Z,59.10
2019-03-12T14:20:41.143Z,58.00
2019-03-12T14:25:44.867Z,57.10
2019-03-12T14:30:48.503Z,58.30
2019-03-12T14:35:52.511Z,58.60
2019-03-12T14:40:55.983Z,56.90
2019-03-12T14:45:59.375Z,56.40
2019-03-12T14:51:03.044Z,57.10
2019-03-12T14:56:06.809Z,54.90
2019-03-12T15:01:10.192Z,54.50
2019-03-12T15:06:13.577Z,55.90
2019-03-12T15:11:17.061Z,54.90
2019-03-12T15:16:20.480Z,54.40
2019-03-12T15:21:23.872Z,56.00
2019-03-12T15:26:27.265Z,55.80
2019-03-12T15:31:30.652Z,55.30
2019-03-12T15:36:34.036Z,54.80
2019-03-12T15:41:37.419Z,55.00
2019-03-12T15:46:40.823Z,54.50
2019-03-12T15:51:44.228Z,53.70
2019-03-12T15:56:47.712Z,53.00
2019-03-12T16:01:51.090Z,53.00
2019-03-12T16:07:01.202Z,53.80
2019-03-12T16:11:59.583Z,53.60
2019-03-12T16:17:02.977Z,54.40
2019-03-12T16:22:06.379Z,53.90
2019-03-12T16:27:09.776Z,54.70
2019-03-12T16:32:13.171Z,55.10
2019-03-12T16:37:19.628Z,55.80
2019-03-12T16:42:34.622Z,56.20
2019-03-12T16:47:28.134Z,56.20
2019-03-12T16:52:31.520Z,56.50
2019-03-12T16:57:34.899Z,56.50
2019-03-12T17:02:38.375Z,56.60
2019-03-12T17:07:41.755Z,58.70
2019-03-12T17:12:45.136Z,58.50
2019-03-12T17:17:48.520Z,58.50
2019-03-12T17:22:51.924Z,58.60
2019-03-12T17:27:55.314Z,58.50
2019-03-12T17:32:58.696Z,59.30
2019-03-12T17:38:02.082Z,59.80
2019-03-12T17:43:05.459Z,60.10
2019-03-12T17:48:08.855Z,59.70
2019-03-12T17:53:12.235Z,60.30
2019-03-12T17:58:15.635Z,60.50
2019-03-12T18:03:19.007Z,60.70
2019-03-12T18:08:22.394Z,61.10
2019-03-12T18:13:25.784Z,61.60
2019-03-12T18:18:29.165Z,62.40
2019-03-12T18:23:32.588Z,62.60
2019-03-12T18:28:35.988Z,63.00
2019-03-12T18:33:39.367Z,64.30
2019-03-12T18:38:42.748Z,64.70
2019-03-12T18:43:46.138Z,65.40
2019-03-12T18:48:49.523Z,66.10
2019-03-12T18:53:52.908Z,66.70
2019-03-12T18:58:56.307Z,67.00
2019-03-12T19:03:59.711Z,67.10
2019-03-12T19:09:04.767Z,67.70
2019-03-12T19:14:08.159Z,68.10
2019-03-12T19:19:11.554Z,68.20
2019-03-12T19:24:14.938Z,68.60
2019-03-12T19:29:18.403Z,69.00
2019-03-12T19:34:23.430Z,69.40
2019-03-12T19:39:26.805Z,69.70
2019-03-12T19:44:30.188Z,70.20
2019-03-12T19:49:33.583Z,70.50
2019-03-12T19:54:36.976Z,71.20
2019-03-12T19:59:40.381Z,70.90
2019-03-12T20:04:47.361Z,71.40
2019-03-12T20:09:51.201Z,71.50
2019-03-12T20:15:30.606Z,71.90
2019-03-12T20:20:54.826Z,72.60
2019-03-12T20:26:34.226Z,72.20
2019-03-12T20:31:49.352Z,72.40
2019-03-12T20:37:13.693Z,72.80
2019-03-12T20:42:51.659Z,73.00
2019-03-12T20:48:31.104Z,73.60
2019-03-12T20:54:08.797Z,74.10
2019-03-12T20:59:20.753Z,74.20
2019-03-12T21:04:32.978Z,74.80
2019-03-12T21:10:13.312Z,75.30
2019-03-12T21:15:34.345Z,75.00
2019-03-12T21:21:12.886Z,75.90
2019-03-12T21:26:38.709Z,76.00
2019-03-12T21:31:42.162Z,77.10
2019-03-12T21:36:45.620Z,77.30
2019-03-12T21:41:49.025Z,77.50
2019-03-12T21:46:52.412Z,77.80
2019-03-12T21:51:55.800Z,78.60
2019-03-12T21:56:59.371Z,78.40
2019-03-12T22:02:02.816Z,79.30
2019-03-12T22:07:06.227Z,79.40
2019-03-12T22:12:09.613Z,80.10
2019-03-12T22:17:13.042Z,80.40
2019-03-12T22:22:18.082Z,80.80
2019-03-12T22:27:21.469Z,80.90
2019-03-12T22:32:24.851Z,80.90
2019-03-12T22:37:28.236Z,81.40
2019-03-12T22:42:31.621Z,81.80
2019-03-12T22:47:35.003Z,82.40
2019-03-12T22:52:38.396Z,82.20
2019-03-12T22:57:41.777Z,83.00
2019-03-12T23:02:45.232Z,83.70
2019-03-12T23:07:48.625Z,83.60
2019-03-12T23:12:52.010Z,84.40
2019-03-12T23:17:55.395Z,84.30
2019-03-12T23:22:58.791Z,84.70
2019-03-12T23:28:02.170Z,84.10
2019-03-12T23:33:05.639Z,84.90
2019-03-12T23:38:09.012Z,84.70
2019-03-12T23:43:12.387Z,84.80
2019-03-12T23:48:15.768Z,85.10
2019-03-12T23:53:19.154Z,85.30
2019-03-12T23:58:25.598Z,85.30
